Silute, Lithuania

2:00 PM EEST on July 18, 2018 (GMT +0300)
Khrabrovo | | Change Station

Elev 89 ft 54.70 °N, 20.62 °E | Updated 30 minutes ago

Clear
Clear
79 °F
Feels Like 79 °F
N
9
Wind Variable Wind from NE

Today
High -- | Low -- °F
--% Chance of Precip.
Yesterday
High -- | Low -- °F
Precip. -- in
Pressure 29.74 in
Visibility -9999.0 miles
Clouds
Dew Point 70 °F
Humidity 74%
Rainfall 0.00 in
Snow Depth Not available.
5:17 AM 10:02 PM
Waxing Crescent, 36% visible
METAR UMKK 181030Z 04004MPS CAVOK 26/21 Q1007 R06/CLRD60 NOSIG RMK QFE754/1005
Pressure 29.74 in
Visibility -9999.0 miles
Clouds
Dew Point 70 °F
Humidity 74%
Rainfall 0.00 in
Snow Depth Not available.
5:17 AM 10:02 PM
Waxing Crescent, 36% visible
METAR UMKK 181030Z 04004MPS CAVOK 26/21 Q1007 R06/CLRD60 NOSIG RMK QFE754/1005

Get Severe Weather Alerts

Thanks for signing up!

Be on the lookout for a verification email in your inbox.

You'll start receiving the daily forecast at 6 AM.

×

10-Day Weather Forecast

×

Almanac

Astronomy

Jul. 18, 2018 Rise Set
Actual Time
Civil Twilight
Nautical Twilight
Astronomical Twilight
Moon
Length of Visible Light
Length of Day
Tomorrow will be .
, % of the Moon is Illuminated

Today's Extremes

Country Highs Country Lows

Community

WunderPhotos

Category 6

Welcome to Category 6. This is the collective home for Weather Underground's featured writeups by Dr. Jeff Masters (right), Bob Henson (left), Chris Burt, and other regular contributors.

Nearby

Air Quality

  Air Quality AQ Index Pollutant
Not available.

Snow Depth

Station Depth Elevation

Earthquake Activity

City Distance Mag. Time & Date
Minimum magnitude displayed is 2.5.

Coastal Water Temperatures

Place Temperature

Stations

Nearby Weather Stations

Station Location Temp. Windchill Dew Point Humidity Wind Precip. Elev Updated Type